This is the latest recevied weather packets stored in our database for station/object KD8ZLZ-13. If no packets are shown the sender has not sent any weather packets the latest 10 day(s).
| Time | Temp. | Humidity | Pressure | Rain* | Wind** | Luminosity | Snow |
|---|---|---|---|---|---|---|---|
| 1777904594 | 16.67° C | 57% | 1006.1 hPa | 0 mm | - | 603 W/m² | - |
| 1777903994 | 16.11° C | 57% | 1006.1 hPa | 0 mm | - | 564 W/m² | - |
| 1777903394 | 15.56° C | 58% | 1006.1 hPa | 0 mm | - | 528 W/m² | - |
| 1777902794 | 15° C | 59% | 1006.5 hPa | 0 mm | - | 490 W/m² | - |
| 1777902194 | 14.44° C | 61% | 1006.5 hPa | 0 mm | - | 452 W/m² | - |
| 1777901594 | 13.89° C | 63% | 1006.5 hPa | 0 mm | - | 416 W/m² | - |
| 1777900994 | 13.33° C | 64% | 1006.5 hPa | 0 mm | - | 379 W/m² | - |
| 1777900394 | 12.78° C | 65% | 1006.8 hPa | 0 mm | - | 341 W/m² | - |
| 1777899794 | 12.22° C | 66% | 1006.8 hPa | 0 mm | - | 305 W/m² | - |
| 1777899194 | 11.67° C | 66% | 1006.8 hPa | 0 mm | - | 270 W/m² | - |
| 1777898594 | 11.67° C | 67% | 1006.8 hPa | 0 mm | - | 235 W/m² | - |
| 1777897994 | 11.11° C | 68% | 1006.8 hPa | 0 mm | - | 200 W/m² | - |
| 1777897394 | 10.56° C | 69% | 1006.8 hPa | 0 mm | - | 139 W/m² | - |
| 1777896794 | 10.56° C | 69% | 1006.8 hPa | 0 mm | - | 105 W/m² | - |
| 1777896194 | 10° C | 71% | 1006.8 hPa | 0 mm | - | 101 W/m² | - |
| 1777895594 | 9.44° C | 72% | 1006.8 hPa | 0 mm | - | 86 W/m² | - |
| 1777894994 | 8.89° C | 73% | 1006.8 hPa | 0 mm | - | 70 W/m² | - |
| 1777894394 | 8.89° C | 74% | 1006.8 hPa | 0 mm | - | 46 W/m² | - |
| 1777893794 | 8.89° C | 75% | 1006.8 hPa | 0 mm | - | 43 W/m² | - |
| 1777893194 | 8.33° C | 75% | 1006.8 hPa | 0 mm | - | 36 W/m² | - |
| 1777892594 | 8.33° C | 75% | 1006.5 hPa | 0 mm | - | 30 W/m² | - |
| 1777891994 | 8.33° C | 75% | 1006.5 hPa | 0 mm | - | 22 W/m² | - |
| 1777891394 | 8.33° C | 75% | 1006.5 hPa | 0 mm | - | 11 W/m² | - |
| 1777890794 | 8.33° C | 76% | 1006.5 hPa | 0 mm | - | 4 W/m² | - |
| 1777890194 | 8.33° C | 75% | 1006.5 hPa | 0 mm | - | 1 W/m² | - |
* Rain latest hour (hover to see other rain measurements)
** Current wind speed in m/s (hover to see current wind gust speed)